sensor_id;sensor_type;location;lat;lon;timestamp;temperature;humidity
50955;DHT22;36966;48.064;-0.792;2023-04-24T00:02:14;18.80;48.90
50955;DHT22;36966;48.064;-0.792;2023-04-24T00:04:34;18.70;48.90
50955;DHT22;36966;48.064;-0.792;2023-04-24T00:06:54;18.70;48.90
50955;DHT22;36966;48.064;-0.792;2023-04-24T00:09:16;18.70;48.90
50955;DHT22;36966;48.064;-0.792;2023-04-24T00:11:35;18.80;48.80
50955;DHT22;36966;48.064;-0.792;2023-04-24T00:13:55;18.80;48.90
50955;DHT22;36966;48.064;-0.792;2023-04-24T00:16:15;18.80;48.90
50955;DHT22;36966;48.064;-0.792;2023-04-24T00:18:34;18.70;48.80
50955;DHT22;36966;48.064;-0.792;2023-04-24T00:20:53;18.70;48.80
50955;DHT22;36966;48.064;-0.792;2023-04-24T00:23:12;18.80;48.80
50955;DHT22;36966;48.064;-0.792;2023-04-24T00:25:31;18.70;48.80
50955;DHT22;36966;48.064;-0.792;2023-04-24T00:27:51;18.70;48.80
50955;DHT22;36966;48.064;-0.792;2023-04-24T00:30:10;18.70;48.80
50955;DHT22;36966;48.064;-0.792;2023-04-24T00:32:30;18.70;48.70
50955;DHT22;36966;48.064;-0.792;2023-04-24T00:34:49;18.70;48.70
50955;DHT22;36966;48.064;-0.792;2023-04-24T00:37:09;18.70;48.70
50955;DHT22;36966;48.064;-0.792;2023-04-24T00:39:33;18.70;48.70
50955;DHT22;36966;48.064;-0.792;2023-04-24T00:41:53;18.70;48.70
50955;DHT22;36966;48.064;-0.792;2023-04-24T00:44:12;18.70;48.70
50955;DHT22;36966;48.064;-0.792;2023-04-24T00:46:31;18.70;48.70
50955;DHT22;36966;48.064;-0.792;2023-04-24T00:48:51;18.70;48.60
50955;DHT22;36966;48.064;-0.792;2023-04-24T00:51:10;18.70;48.60
50955;DHT22;36966;48.064;-0.792;2023-04-24T00:53:30;18.70;48.50
50955;DHT22;36966;48.064;-0.792;2023-04-24T00:55:49;18.70;48.50
50955;DHT22;36966;48.064;-0.792;2023-04-24T00:58:08;18.70;48.50
50955;DHT22;36966;48.064;-0.792;2023-04-24T01:00:28;18.70;48.50
50955;DHT22;36966;48.064;-0.792;2023-04-24T01:02:47;18.70;48.50
50955;DHT22;36966;48.064;-0.792;2023-04-24T01:05:07;18.70;48.50
50955;DHT22;36966;48.064;-0.792;2023-04-24T01:07:27;18.70;48.50
50955;DHT22;36966;48.064;-0.792;2023-04-24T01:09:46;18.70;48.50
50955;DHT22;36966;48.064;-0.792;2023-04-24T01:12:07;18.70;48.50
50955;DHT22;36966;48.064;-0.792;2023-04-24T01:14:28;18.70;48.50
50955;DHT22;36966;48.064;-0.792;2023-04-24T01:16:47;18.70;48.50
50955;DHT22;36966;48.064;-0.792;2023-04-24T01:19:06;18.70;48.50
50955;DHT22;36966;48.064;-0.792;2023-04-24T01:21:26;18.70;48.50
50955;DHT22;36966;48.064;-0.792;2023-04-24T01:23:49;18.70;48.50
50955;DHT22;36966;48.064;-0.792;2023-04-24T01:26:08;18.70;48.50
50955;DHT22;36966;48.064;-0.792;2023-04-24T01:28:28;18.70;48.50
50955;DHT22;36966;48.064;-0.792;2023-04-24T01:30:49;18.60;48.50
50955;DHT22;36966;48.064;-0.792;2023-04-24T01:33:09;18.60;48.50
50955;DHT22;36966;48.064;-0.792;2023-04-24T01:35:29;18.70;48.50
50955;DHT22;36966;48.064;-0.792;2023-04-24T01:37:49;18.70;48.50
50955;DHT22;36966;48.064;-0.792;2023-04-24T01:40:11;18.60;48.50
50955;DHT22;36966;48.064;-0.792;2023-04-24T01:42:30;18.60;48.40
50955;DHT22;36966;48.064;-0.792;2023-04-24T01:44:50;18.70;48.40
50955;DHT22;36966;48.064;-0.792;2023-04-24T01:47:10;18.60;48.40
50955;DHT22;36966;48.064;-0.792;2023-04-24T01:49:29;18.60;48.40
50955;DHT22;36966;48.064;-0.792;2023-04-24T01:51:48;18.60;48.40
50955;DHT22;36966;48.064;-0.792;2023-04-24T01:54:07;18.60;48.40
50955;DHT22;36966;48.064;-0.792;2023-04-24T01:56:28;18.60;48.40
50955;DHT22;36966;48.064;-0.792;2023-04-24T01:58:49;18.60;48.40
50955;DHT22;36966;48.064;-0.792;2023-04-24T02:01:19;18.60;48.30
50955;DHT22;36966;48.064;-0.792;2023-04-24T02:03:39;18.60;48.40
50955;DHT22;36966;48.064;-0.792;2023-04-24T02:05:58;18.60;48.30
50955;DHT22;36966;48.064;-0.792;2023-04-24T02:08:17;18.60;48.30
50955;DHT22;36966;48.064;-0.792;2023-04-24T02:10:37;18.60;48.30
50955;DHT22;36966;48.064;-0.792;2023-04-24T02:12:57;18.60;48.20
50955;DHT22;36966;48.064;-0.792;2023-04-24T02:15:18;18.60;48.20
50955;DHT22;36966;48.064;-0.792;2023-04-24T02:17:40;18.50;48.20
50955;DHT22;36966;48.064;-0.792;2023-04-24T02:20:00;18.60;48.20
50955;DHT22;36966;48.064;-0.792;2023-04-24T02:22:19;18.60;48.20
50955;DHT22;36966;48.064;-0.792;2023-04-24T02:24:38;18.50;48.20
50955;DHT22;36966;48.064;-0.792;2023-04-24T02:26:57;18.50;48.20
50955;DHT22;36966;48.064;-0.792;2023-04-24T02:29:16;18.50;48.20
50955;DHT22;36966;48.064;-0.792;2023-04-24T02:31:36;18.50;48.20
50955;DHT22;36966;48.064;-0.792;2023-04-24T02:33:55;18.50;48.20
50955;DHT22;36966;48.064;-0.792;2023-04-24T02:36:14;18.50;48.20
50955;DHT22;36966;48.064;-0.792;2023-04-24T02:38:34;18.50;48.20
50955;DHT22;36966;48.064;-0.792;2023-04-24T02:40:54;18.50;48.20
50955;DHT22;36966;48.064;-0.792;2023-04-24T02:43:14;18.50;48.20
50955;DHT22;36966;48.064;-0.792;2023-04-24T02:45:33;18.50;48.20
50955;DHT22;36966;48.064;-0.792;2023-04-24T02:47:57;18.50;48.20
50955;DHT22;36966;48.064;-0.792;2023-04-24T02:50:19;18.50;48.20
50955;DHT22;36966;48.064;-0.792;2023-04-24T02:52:38;18.50;48.20
50955;DHT22;36966;48.064;-0.792;2023-04-24T02:54:58;18.50;48.20
50955;DHT22;36966;48.064;-0.792;2023-04-24T02:57:17;18.50;48.20
50955;DHT22;36966;48.064;-0.792;2023-04-24T02:59:36;18.50;48.20
50955;DHT22;36966;48.064;-0.792;2023-04-24T03:01:56;18.50;48.30
50955;DHT22;36966;48.064;-0.792;2023-04-24T03:04:15;18.50;48.20
50955;DHT22;36966;48.064;-0.792;2023-04-24T03:06:35;18.50;48.30
50955;DHT22;36966;48.064;-0.792;2023-04-24T03:08:55;18.50;48.30
50955;DHT22;36966;48.064;-0.792;2023-04-24T03:11:14;18.50;48.30
50955;DHT22;36966;48.064;-0.792;2023-04-24T03:13:36;18.40;48.30
50955;DHT22;36966;48.064;-0.792;2023-04-24T03:15:56;18.40;48.30
50955;DHT22;36966;48.064;-0.792;2023-04-24T03:18:15;18.40;48.30
50955;DHT22;36966;48.064;-0.792;2023-04-24T03:20:34;18.40;48.30
50955;DHT22;36966;48.064;-0.792;2023-04-24T03:22:55;18.40;48.30
50955;DHT22;36966;48.064;-0.792;2023-04-24T03:25:16;18.40;48.30
50955;DHT22;36966;48.064;-0.792;2023-04-24T03:27:35;18.40;48.30
50955;DHT22;36966;48.064;-0.792;2023-04-24T03:29:55;18.40;48.30
50955;DHT22;36966;48.064;-0.792;2023-04-24T03:32:14;18.40;48.30
50955;DHT22;36966;48.064;-0.792;2023-04-24T03:34:34;18.40;48.30
50955;DHT22;36966;48.064;-0.792;2023-04-24T03:36:54;18.40;48.30
50955;DHT22;36966;48.064;-0.792;2023-04-24T03:39:13;18.40;48.40
50955;DHT22;36966;48.064;-0.792;2023-04-24T03:41:33;18.40;48.40
50955;DHT22;36966;48.064;-0.792;2023-04-24T03:43:52;18.40;48.40
50955;DHT22;36966;48.064;-0.792;2023-04-24T03:46:12;18.40;48.40
50955;DHT22;36966;48.064;-0.792;2023-04-24T03:48:32;18.40;48.40
50955;DHT22;36966;48.064;-0.792;2023-04-24T03:50:51;18.40;48.40
50955;DHT22;36966;48.064;-0.792;2023-04-24T03:53:10;18.40;48.90
50955;DHT22;36966;48.064;-0.792;2023-04-24T03:55:29;18.20;49.40
50955;DHT22;36966;48.064;-0.792;2023-04-24T03:57:49;18.20;49.00
50955;DHT22;36966;48.064;-0.792;2023-04-24T04:00:08;18.20;48.70
50955;DHT22;36966;48.064;-0.792;2023-04-24T04:02:27;18.30;48.50
50955;DHT22;36966;48.064;-0.792;2023-04-24T04:04:47;18.30;48.50
50955;DHT22;36966;48.064;-0.792;2023-04-24T04:07:06;18.30;48.40
50955;DHT22;36966;48.064;-0.792;2023-04-24T04:09:26;18.30;48.40
50955;DHT22;36966;48.064;-0.792;2023-04-24T04:11:46;18.30;48.30
50955;DHT22;36966;48.064;-0.792;2023-04-24T04:14:05;18.30;48.30
50955;DHT22;36966;48.064;-0.792;2023-04-24T04:16:25;18.30;48.30
50955;DHT22;36966;48.064;-0.792;2023-04-24T04:18:44;18.30;48.30
50955;DHT22;36966;48.064;-0.792;2023-04-24T04:21:04;18.30;48.20
50955;DHT22;36966;48.064;-0.792;2023-04-24T04:23:23;18.30;48.30
50955;DHT22;36966;48.064;-0.792;2023-04-24T04:25:42;18.30;48.20
50955;DHT22;36966;48.064;-0.792;2023-04-24T04:28:01;18.30;48.20
50955;DHT22;36966;48.064;-0.792;2023-04-24T04:30:21;18.30;48.20
50955;DHT22;36966;48.064;-0.792;2023-04-24T04:32:40;18.30;48.20
50955;DHT22;36966;48.064;-0.792;2023-04-24T04:35:00;18.30;48.30
50955;DHT22;36966;48.064;-0.792;2023-04-24T04:37:23;18.30;48.20
50955;DHT22;36966;48.064;-0.792;2023-04-24T04:39:50;18.30;48.30
50955;DHT22;36966;48.064;-0.792;2023-04-24T04:42:13;18.30;48.30
50955;DHT22;36966;48.064;-0.792;2023-04-24T04:44:33;18.30;48.20
50955;DHT22;36966;48.064;-0.792;2023-04-24T04:46:54;18.30;48.30
50955;DHT22;36966;48.064;-0.792;2023-04-24T04:49:15;18.30;48.30
50955;DHT22;36966;48.064;-0.792;2023-04-24T04:51:35;18.30;48.30
50955;DHT22;36966;48.064;-0.792;2023-04-24T04:53:55;18.20;48.30
50955;DHT22;36966;48.064;-0.792;2023-04-24T04:56:14;18.20;48.30
50955;DHT22;36966;48.064;-0.792;2023-04-24T04:58:34;18.30;48.30
50955;DHT22;36966;48.064;-0.792;2023-04-24T05:00:53;18.20;48.30
50955;DHT22;36966;48.064;-0.792;2023-04-24T05:03:13;18.30;48.30
50955;DHT22;36966;48.064;-0.792;2023-04-24T05:05:32;18.20;48.40
50955;DHT22;36966;48.064;-0.792;2023-04-24T05:07:51;18.20;48.40
50955;DHT22;36966;48.064;-0.792;2023-04-24T05:10:11;18.20;48.40
50955;DHT22;36966;48.064;-0.792;2023-04-24T05:12:30;18.20;48.40
50955;DHT22;36966;48.064;-0.792;2023-04-24T05:14:49;18.30;48.40
50955;DHT22;36966;48.064;-0.792;2023-04-24T05:17:09;18.20;48.30
50955;DHT22;36966;48.064;-0.792;2023-04-24T05:19:29;18.20;48.30
50955;DHT22;36966;48.064;-0.792;2023-04-24T05:21:48;18.20;48.40
50955;DHT22;36966;48.064;-0.792;2023-04-24T05:24:08;18.20;48.40
50955;DHT22;36966;48.064;-0.792;2023-04-24T05:26:27;18.20;48.40
50955;DHT22;36966;48.064;-0.792;2023-04-24T05:28:46;18.20;48.40
50955;DHT22;36966;48.064;-0.792;2023-04-24T05:31:06;18.20;48.40
50955;DHT22;36966;48.064;-0.792;2023-04-24T05:33:25;18.20;48.40
50955;DHT22;36966;48.064;-0.792;2023-04-24T05:35:44;18.20;48.40
50955;DHT22;36966;48.064;-0.792;2023-04-24T05:38:05;18.20;48.40
50955;DHT22;36966;48.064;-0.792;2023-04-24T05:40:24;18.20;48.40
50955;DHT22;36966;48.064;-0.792;2023-04-24T05:42:44;18.20;48.50
50955;DHT22;36966;48.064;-0.792;2023-04-24T05:45:03;18.20;48.50
50955;DHT22;36966;48.064;-0.792;2023-04-24T05:47:23;18.20;48.40
50955;DHT22;36966;48.064;-0.792;2023-04-24T05:49:42;18.20;48.50
50955;DHT22;36966;48.064;-0.792;2023-04-24T05:52:01;18.20;48.50
50955;DHT22;36966;48.064;-0.792;2023-04-24T05:54:23;18.20;48.50
50955;DHT22;36966;48.064;-0.792;2023-04-24T05:56:42;18.20;48.50
50955;DHT22;36966;48.064;-0.792;2023-04-24T05:59:01;18.20;48.40
50955;DHT22;36966;48.064;-0.792;2023-04-24T06:01:21;18.20;48.50
50955;DHT22;36966;48.064;-0.792;2023-04-24T06:03:41;18.20;48.50
50955;DHT22;36966;48.064;-0.792;2023-04-24T06:06:00;18.20;48.50
50955;DHT22;36966;48.064;-0.792;2023-04-24T06:08:19;18.20;48.50
50955;DHT22;36966;48.064;-0.792;2023-04-24T06:10:39;18.30;48.40
50955;DHT22;36966;48.064;-0.792;2023-04-24T06:12:59;18.30;48.40
50955;DHT22;36966;48.064;-0.792;2023-04-24T06:15:21;18.20;48.40
50955;DHT22;36966;48.064;-0.792;2023-04-24T06:17:41;18.30;48.40
50955;DHT22;36966;48.064;-0.792;2023-04-24T06:20:00;18.20;48.40
50955;DHT22;36966;48.064;-0.792;2023-04-24T06:22:20;18.30;48.50
50955;DHT22;36966;48.064;-0.792;2023-04-24T06:24:39;18.30;48.40
50955;DHT22;36966;48.064;-0.792;2023-04-24T06:26:59;18.30;48.40
50955;DHT22;36966;48.064;-0.792;2023-04-24T06:29:28;18.20;48.40
50955;DHT22;36966;48.064;-0.792;2023-04-24T06:31:47;18.20;48.50
50955;DHT22;36966;48.064;-0.792;2023-04-24T06:34:07;18.20;48.50
50955;DHT22;36966;48.064;-0.792;2023-04-24T06:36:26;18.30;48.50
50955;DHT22;36966;48.064;-0.792;2023-04-24T06:38:47;18.20;48.50
50955;DHT22;36966;48.064;-0.792;2023-04-24T06:41:07;18.30;48.50
50955;DHT22;36966;48.064;-0.792;2023-04-24T06:43:26;18.30;48.50
50955;DHT22;36966;48.064;-0.792;2023-04-24T06:45:45;18.20;48.50
50955;DHT22;36966;48.064;-0.792;2023-04-24T06:48:06;18.20;48.60
50955;DHT22;36966;48.064;-0.792;2023-04-24T06:50:25;18.20;48.60
50955;DHT22;36966;48.064;-0.792;2023-04-24T06:52:44;18.20;48.50
50955;DHT22;36966;48.064;-0.792;2023-04-24T06:55:04;18.30;48.60
50955;DHT22;36966;48.064;-0.792;2023-04-24T06:57:24;18.30;48.50
50955;DHT22;36966;48.064;-0.792;2023-04-24T06:59:43;18.30;48.60
50955;DHT22;36966;48.064;-0.792;2023-04-24T07:02:02;18.30;48.60
50955;DHT22;36966;48.064;-0.792;2023-04-24T07:04:22;18.30;48.60
50955;DHT22;36966;48.064;-0.792;2023-04-24T07:06:41;18.30;48.70
50955;DHT22;36966;48.064;-0.792;2023-04-24T07:09:00;18.30;48.60
50955;DHT22;36966;48.064;-0.792;2023-04-24T07:11:22;18.30;48.70
50955;DHT22;36966;48.064;-0.792;2023-04-24T07:13:41;18.30;48.70
50955;DHT22;36966;48.064;-0.792;2023-04-24T07:16:01;18.30;48.70
50955;DHT22;36966;48.064;-0.792;2023-04-24T07:18:20;18.30;48.70
50955;DHT22;36966;48.064;-0.792;2023-04-24T07:20:39;18.40;48.70
50955;DHT22;36966;48.064;-0.792;2023-04-24T07:22:58;18.40;48.80
50955;DHT22;36966;48.064;-0.792;2023-04-24T07:25:18;18.40;48.80
50955;DHT22;36966;48.064;-0.792;2023-04-24T07:27:37;18.50;48.80
50955;DHT22;36966;48.064;-0.792;2023-04-24T07:29:57;18.50;48.80
50955;DHT22;36966;48.064;-0.792;2023-04-24T07:32:16;18.50;48.90
50955;DHT22;36966;48.064;-0.792;2023-04-24T07:34:35;18.60;48.90
50955;DHT22;36966;48.064;-0.792;2023-04-24T07:36:55;18.60;49.00
50955;DHT22;36966;48.064;-0.792;2023-04-24T07:39:15;18.70;49.00
50955;DHT22;36966;48.064;-0.792;2023-04-24T07:41:34;18.70;48.90
50955;DHT22;36966;48.064;-0.792;2023-04-24T07:43:53;18.80;48.80
50955;DHT22;36966;48.064;-0.792;2023-04-24T07:46:23;18.80;48.90
50955;DHT22;36966;48.064;-0.792;2023-04-24T07:48:42;18.90;48.80
50955;DHT22;36966;48.064;-0.792;2023-04-24T07:51:02;18.90;48.80
50955;DHT22;36966;48.064;-0.792;2023-04-24T07:53:21;19.00;48.70
50955;DHT22;36966;48.064;-0.792;2023-04-24T07:55:40;19.00;48.60
50955;DHT22;36966;48.064;-0.792;2023-04-24T07:57:59;19.00;48.60
50955;DHT22;36966;48.064;-0.792;2023-04-24T08:00:21;19.00;48.60
50955;DHT22;36966;48.064;-0.792;2023-04-24T08:02:40;19.10;48.50
50955;DHT22;36966;48.064;-0.792;2023-04-24T08:05:03;19.10;48.50
50955;DHT22;36966;48.064;-0.792;2023-04-24T08:07:23;19.10;48.40
50955;DHT22;36966;48.064;-0.792;2023-04-24T08:09:42;19.20;48.40
50955;DHT22;36966;48.064;-0.792;2023-04-24T08:12:01;19.20;48.30
50955;DHT22;36966;48.064;-0.792;2023-04-24T08:14:21;19.20;48.20
50955;DHT22;36966;48.064;-0.792;2023-04-24T08:16:40;19.30;48.10
50955;DHT22;36966;48.064;-0.792;2023-04-24T08:18:59;19.30;48.10
50955;DHT22;36966;48.064;-0.792;2023-04-24T08:21:19;19.30;48.20
50955;DHT22;36966;48.064;-0.792;2023-04-24T08:23:40;19.30;48.20
50955;DHT22;36966;48.064;-0.792;2023-04-24T08:25:59;19.30;48.20
50955;DHT22;36966;48.064;-0.792;2023-04-24T08:28:18;19.40;48.00
50955;DHT22;36966;48.064;-0.792;2023-04-24T08:30:39;19.40;47.90
50955;DHT22;36966;48.064;-0.792;2023-04-24T08:32:59;19.40;47.90
50955;DHT22;36966;48.064;-0.792;2023-04-24T08:35:18;19.50;47.80
50955;DHT22;36966;48.064;-0.792;2023-04-24T08:37:38;19.50;47.80
50955;DHT22;36966;48.064;-0.792;2023-04-24T08:40:01;19.50;47.80
50955;DHT22;36966;48.064;-0.792;2023-04-24T08:42:20;19.50;47.90
50955;DHT22;36966;48.064;-0.792;2023-04-24T08:44:40;19.50;47.80
50955;DHT22;36966;48.064;-0.792;2023-04-24T08:47:00;19.50;47.80
50955;DHT22;36966;48.064;-0.792;2023-04-24T08:49:19;19.40;47.90
50955;DHT22;36966;48.064;-0.792;2023-04-24T08:51:39;19.50;47.80
50955;DHT22;36966;48.064;-0.792;2023-04-24T08:53:59;19.50;47.90
50955;DHT22;36966;48.064;-0.792;2023-04-24T08:56:18;19.50;47.60
50955;DHT22;36966;48.064;-0.792;2023-04-24T08:58:38;19.60;47.60
50955;DHT22;36966;48.064;-0.792;2023-04-24T09:00:57;19.60;47.20
50955;DHT22;36966;48.064;-0.792;2023-04-24T09:03:17;19.60;47.20
50955;DHT22;36966;48.064;-0.792;2023-04-24T09:05:37;19.70;47.10
50955;DHT22;36966;48.064;-0.792;2023-04-24T09:07:56;19.70;47.00
50955;DHT22;36966;48.064;-0.792;2023-04-24T09:10:18;19.70;47.10
50955;DHT22;36966;48.064;-0.792;2023-04-24T09:12:38;19.70;47.00
50955;DHT22;36966;48.064;-0.792;2023-04-24T09:14:57;19.70;47.10
50955;DHT22;36966;48.064;-0.792;2023-04-24T09:17:17;19.70;47.20
50955;DHT22;36966;48.064;-0.792;2023-04-24T09:19:36;19.60;47.30
50955;DHT22;36966;48.064;-0.792;2023-04-24T09:21:55;19.50;47.40
50955;DHT22;36966;48.064;-0.792;2023-04-24T09:24:16;19.50;47.50
50955;DHT22;36966;48.064;-0.792;2023-04-24T09:26:41;19.50;47.60
50955;DHT22;36966;48.064;-0.792;2023-04-24T09:29:01;19.40;47.70
50955;DHT22;36966;48.064;-0.792;2023-04-24T09:31:21;19.40;47.70
50955;DHT22;36966;48.064;-0.792;2023-04-24T09:34:03;19.40;47.50
50955;DHT22;36966;48.064;-0.792;2023-04-24T09:36:29;19.30;47.50
50955;DHT22;36966;48.064;-0.792;2023-04-24T09:38:53;19.30;47.50
50955;DHT22;36966;48.064;-0.792;2023-04-24T09:41:13;19.30;47.60
50955;DHT22;36966;48.064;-0.792;2023-04-24T09:43:33;19.20;47.50
50955;DHT22;36966;48.064;-0.792;2023-04-24T09:45:55;19.20;47.50
50955;DHT22;36966;48.064;-0.792;2023-04-24T09:48:15;19.20;47.60
50955;DHT22;36966;48.064;-0.792;2023-04-24T09:50:34;19.20;47.50
50955;DHT22;36966;48.064;-0.792;2023-04-24T09:52:58;19.20;47.60
50955;DHT22;36966;48.064;-0.792;2023-04-24T09:55:20;19.20;47.60
50955;DHT22;36966;48.064;-0.792;2023-04-24T09:57:47;19.20;47.70
50955;DHT22;36966;48.064;-0.792;2023-04-24T10:00:07;19.20;47.60
50955;DHT22;36966;48.064;-0.792;2023-04-24T10:02:27;19.20;47.50
50955;DHT22;36966;48.064;-0.792;2023-04-24T10:04:54;19.20;47.30
50955;DHT22;36966;48.064;-0.792;2023-04-24T10:07:18;19.20;47.10
50955;DHT22;36966;48.064;-0.792;2023-04-24T10:09:38;19.30;46.90
50955;DHT22;36966;48.064;-0.792;2023-04-24T10:11:57;19.30;47.00
50955;DHT22;36966;48.064;-0.792;2023-04-24T10:14:18;19.30;46.80
50955;DHT22;36966;48.064;-0.792;2023-04-24T10:16:37;19.30;46.70
50955;DHT22;36966;48.064;-0.792;2023-04-24T10:18:58;19.30;46.70
50955;DHT22;36966;48.064;-0.792;2023-04-24T10:21:18;19.40;46.50
50955;DHT22;36966;48.064;-0.792;2023-04-24T10:23:41;19.40;46.70
50955;DHT22;36966;48.064;-0.792;2023-04-24T10:26:01;19.40;46.70
50955;DHT22;36966;48.064;-0.792;2023-04-24T10:28:21;19.40;46.60
50955;DHT22;36966;48.064;-0.792;2023-04-24T10:30:42;19.50;46.70
50955;DHT22;36966;48.064;-0.792;2023-04-24T10:33:03;19.50;46.50
50955;DHT22;36966;48.064;-0.792;2023-04-24T10:35:22;19.60;46.50
50955;DHT22;36966;48.064;-0.792;2023-04-24T10:37:49;19.70;46.40
50955;DHT22;36966;48.064;-0.792;2023-04-24T10:40:09;19.70;46.10
50955;DHT22;36966;48.064;-0.792;2023-04-24T10:42:29;19.80;45.80
50955;DHT22;36966;48.064;-0.792;2023-04-24T10:44:48;19.80;45.40
50955;DHT22;36966;48.064;-0.792;2023-04-24T10:47:14;19.90;45.30
50955;DHT22;36966;48.064;-0.792;2023-04-24T10:49:34;19.80;45.40
50955;DHT22;36966;48.064;-0.792;2023-04-24T10:51:53;19.90;45.70
50955;DHT22;36966;48.064;-0.792;2023-04-24T10:56:42;19.90;45.70
50955;DHT22;36966;48.064;-0.792;2023-04-24T10:59:01;19.90;45.60
50955;DHT22;36966;48.064;-0.792;2023-04-24T11:01:25;20.00;45.70
50955;DHT22;36966;48.064;-0.792;2023-04-24T11:03:51;20.00;45.70
50955;DHT22;36966;48.064;-0.792;2023-04-24T11:06:13;20.00;45.70
50955;DHT22;36966;48.064;-0.792;2023-04-24T11:08:39;20.10;45.70
50955;DHT22;36966;48.064;-0.792;2023-04-24T11:11:19;20.00;45.60
50955;DHT22;36966;48.064;-0.792;2023-04-24T11:16:26;20.00;45.20
50955;DHT22;36966;48.064;-0.792;2023-04-24T11:18:45;19.90;45.60
50955;DHT22;36966;48.064;-0.792;2023-04-24T11:21:11;19.80;45.90
50955;DHT22;36966;48.064;-0.792;2023-04-24T11:23:35;19.80;46.10
50955;DHT22;36966;48.064;-0.792;2023-04-24T11:28:51;19.70;46.30
50955;DHT22;36966;48.064;-0.792;2023-04-24T11:33:48;19.70;46.30
50955;DHT22;36966;48.064;-0.792;2023-04-24T11:36:08;19.70;46.30
50955;DHT22;36966;48.064;-0.792;2023-04-24T11:38:27;19.60;46.20
50955;DHT22;36966;48.064;-0.792;2023-04-24T11:40:46;19.60;46.20
50955;DHT22;36966;48.064;-0.792;2023-04-24T11:43:08;19.50;46.10
50955;DHT22;36966;48.064;-0.792;2023-04-24T11:45:28;19.50;46.10
50955;DHT22;36966;48.064;-0.792;2023-04-24T11:47:48;19.50;46.00
50955;DHT22;36966;48.064;-0.792;2023-04-24T11:50:08;19.50;45.90
50955;DHT22;36966;48.064;-0.792;2023-04-24T11:52:27;19.50;45.80
50955;DHT22;36966;48.064;-0.792;2023-04-24T11:54:50;19.50;45.50
50955;DHT22;36966;48.064;-0.792;2023-04-24T11:57:09;19.40;45.90
50955;DHT22;36966;48.064;-0.792;2023-04-24T11:59:28;19.40;46.10
50955;DHT22;36966;48.064;-0.792;2023-04-24T12:01:48;19.40;45.80
50955;DHT22;36966;48.064;-0.792;2023-04-24T12:04:08;19.40;46.10
50955;DHT22;36966;48.064;-0.792;2023-04-24T12:06:27;19.40;46.00
50955;DHT22;36966;48.064;-0.792;2023-04-24T12:08:47;19.30;46.20
50955;DHT22;36966;48.064;-0.792;2023-04-24T12:11:07;19.40;46.30
50955;DHT22;36966;48.064;-0.792;2023-04-24T12:13:26;19.30;46.20
50955;DHT22;36966;48.064;-0.792;2023-04-24T12:15:46;19.30;46.30
50955;DHT22;36966;48.064;-0.792;2023-04-24T12:18:05;19.30;46.20
50955;DHT22;36966;48.064;-0.792;2023-04-24T12:20:26;19.30;46.40
50955;DHT22;36966;48.064;-0.792;2023-04-24T12:22:49;19.30;46.40
50955;DHT22;36966;48.064;-0.792;2023-04-24T12:25:09;19.30;46.30
50955;DHT22;36966;48.064;-0.792;2023-04-24T12:27:30;19.30;46.30
50955;DHT22;36966;48.064;-0.792;2023-04-24T12:29:53;19.30;46.30
50955;DHT22;36966;48.064;-0.792;2023-04-24T12:32:17;19.30;46.40
50955;DHT22;36966;48.064;-0.792;2023-04-24T12:34:37;19.40;46.50
50955;DHT22;36966;48.064;-0.792;2023-04-24T12:36:56;19.30;46.40
50955;DHT22;36966;48.064;-0.792;2023-04-24T12:39:16;19.40;46.20
50955;DHT22;36966;48.064;-0.792;2023-04-24T12:41:36;19.40;46.30
50955;DHT22;36966;48.064;-0.792;2023-04-24T12:43:56;19.30;46.10
50955;DHT22;36966;48.064;-0.792;2023-04-24T12:46:15;19.40;46.40
50955;DHT22;36966;48.064;-0.792;2023-04-24T12:48:34;19.40;46.20
50955;DHT22;36966;48.064;-0.792;2023-04-24T12:50:54;19.40;46.10
50955;DHT22;36966;48.064;-0.792;2023-04-24T12:53:14;19.40;46.20
50955;DHT22;36966;48.064;-0.792;2023-04-24T12:55:35;19.40;46.20
50955;DHT22;36966;48.064;-0.792;2023-04-24T12:57:54;19.40;46.30
50955;DHT22;36966;48.064;-0.792;2023-04-24T13:00:14;19.40;46.20
50955;DHT22;36966;48.064;-0.792;2023-04-24T13:02:34;19.30;46.30
50955;DHT22;36966;48.064;-0.792;2023-04-24T13:04:59;19.30;46.30
50955;DHT22;36966;48.064;-0.792;2023-04-24T13:07:19;19.30;46.20
50955;DHT22;36966;48.064;-0.792;2023-04-24T13:09:38;19.30;46.40
50955;DHT22;36966;48.064;-0.792;2023-04-24T13:11:57;19.30;46.50
50955;DHT22;36966;48.064;-0.792;2023-04-24T13:14:19;19.30;46.50
50955;DHT22;36966;48.064;-0.792;2023-04-24T13:16:38;19.20;46.40
50955;DHT22;36966;48.064;-0.792;2023-04-24T13:18:58;19.20;46.40
50955;DHT22;36966;48.064;-0.792;2023-04-24T13:21:17;19.30;46.50
50955;DHT22;36966;48.064;-0.792;2023-04-24T13:23:36;19.30;46.50
50955;DHT22;36966;48.064;-0.792;2023-04-24T13:25:56;19.30;46.50
50955;DHT22;36966;48.064;-0.792;2023-04-24T13:28:16;19.20;46.50
50955;DHT22;36966;48.064;-0.792;2023-04-24T13:30:36;19.20;46.50
50955;DHT22;36966;48.064;-0.792;2023-04-24T13:32:55;19.20;46.60
50955;DHT22;36966;48.064;-0.792;2023-04-24T13:35:15;19.20;46.50
50955;DHT22;36966;48.064;-0.792;2023-04-24T13:37:34;19.20;46.50
50955;DHT22;36966;48.064;-0.792;2023-04-24T13:39:54;19.20;46.60
50955;DHT22;36966;48.064;-0.792;2023-04-24T13:42:13;19.30;46.60
50955;DHT22;36966;48.064;-0.792;2023-04-24T13:44:32;19.20;46.60
50955;DHT22;36966;48.064;-0.792;2023-04-24T13:46:52;19.30;46.70
50955;DHT22;36966;48.064;-0.792;2023-04-24T13:49:13;19.30;46.70
50955;DHT22;36966;48.064;-0.792;2023-04-24T13:51:32;19.20;46.70
50955;DHT22;36966;48.064;-0.792;2023-04-24T13:57:53;19.30;46.90
50955;DHT22;36966;48.064;-0.792;2023-04-24T14:00:19;19.30;46.90
50955;DHT22;36966;48.064;-0.792;2023-04-24T14:02:38;19.20;47.00
50955;DHT22;36966;48.064;-0.792;2023-04-24T14:04:58;19.30;47.00
50955;DHT22;36966;48.064;-0.792;2023-04-24T14:07:17;19.30;47.00
50955;DHT22;36966;48.064;-0.792;2023-04-24T14:09:37;19.30;47.00
50955;DHT22;36966;48.064;-0.792;2023-04-24T14:11:56;19.30;46.30
50955;DHT22;36966;48.064;-0.792;2023-04-24T14:14:16;19.30;46.80
50955;DHT22;36966;48.064;-0.792;2023-04-24T14:16:35;19.30;46.80
50955;DHT22;36966;48.064;-0.792;2023-04-24T14:24:57;19.40;46.80
50955;DHT22;36966;48.064;-0.792;2023-04-24T14:27:17;19.40;46.70
50955;DHT22;36966;48.064;-0.792;2023-04-24T14:29:36;19.40;46.30
50955;DHT22;36966;48.064;-0.792;2023-04-24T14:31:55;19.40;46.90
50955;DHT22;36966;48.064;-0.792;2023-04-24T14:34:15;19.40;46.70
50955;DHT22;36966;48.064;-0.792;2023-04-24T14:36:34;19.30;46.80
50955;DHT22;36966;48.064;-0.792;2023-04-24T14:38:54;19.30;46.90
50955;DHT22;36966;48.064;-0.792;2023-04-24T14:41:13;19.30;47.10
50955;DHT22;36966;48.064;-0.792;2023-04-24T14:43:32;19.30;47.00
50955;DHT22;36966;48.064;-0.792;2023-04-24T14:45:53;19.30;47.00
50955;DHT22;36966;48.064;-0.792;2023-04-24T14:48:13;19.30;46.90
50955;DHT22;36966;48.064;-0.792;2023-04-24T14:50:32;19.30;46.80
50955;DHT22;36966;48.064;-0.792;2023-04-24T14:52:51;19.30;46.70